createdAt,value
2022-09-27T00:01:55.553Z,4.10
2022-09-27T00:04:21.997Z,4.10
2022-09-27T00:06:48.378Z,4.97
2022-09-27T00:09:14.992Z,3.77
2022-09-27T00:11:44.924Z,3.57
2022-09-27T00:14:12.592Z,3.97
2022-09-27T00:16:40.083Z,4.07
2022-09-27T00:19:16.740Z,4.23
2022-09-27T00:21:44.147Z,3.30
2022-09-27T00:24:14.553Z,4.10
2022-09-27T00:26:40.945Z,4.13
2022-09-27T00:29:07.775Z,3.97
2022-09-27T00:31:34.266Z,4.03
2022-09-27T00:34:02.009Z,3.90
2022-09-27T00:36:28.899Z,4.27
2022-09-27T00:38:55.930Z,4.17
2022-09-27T00:41:24.015Z,4.07
2022-09-27T00:43:58.350Z,3.90
2022-09-27T00:46:39.231Z,4.50
2022-09-27T00:49:14.708Z,3.97
2022-09-27T00:51:42.130Z,3.87
2022-09-27T00:54:10.650Z,4.20
2022-09-27T00:56:37.110Z,4.13
2022-09-27T00:59:13.954Z,3.57
2022-09-27T01:01:40.775Z,4.40
2022-09-27T01:04:08.741Z,4.30
2022-09-27T01:06:35.609Z,4.60
2022-09-27T01:09:02.034Z,4.03
2022-09-27T01:11:35.094Z,3.77
2022-09-27T01:14:07.429Z,3.83
2022-09-27T01:16:49.358Z,3.27
2022-09-27T01:19:27.862Z,4.27
2022-09-27T01:22:02.057Z,3.60
2022-09-27T01:24:44.934Z,3.73
2022-09-27T01:27:29.863Z,3.70
2022-09-27T01:30:11.518Z,4.03
2022-09-27T01:32:56.735Z,3.50
2022-09-27T01:35:35.691Z,3.83
2022-09-27T01:38:02.082Z,3.63
2022-09-27T01:40:44.142Z,3.50
2022-09-27T01:43:14.801Z,3.07
2022-09-27T01:45:48.895Z,4.13
2022-09-27T01:48:25.194Z,3.87
2022-09-27T01:51:17.985Z,3.40
2022-09-27T01:53:48.617Z,3.33
2022-09-27T01:56:18.328Z,4.03
2022-09-27T01:58:50.519Z,3.97
2022-09-27T02:01:18.272Z,3.70
2022-09-27T02:03:46.967Z,4.00
2022-09-27T02:06:21.998Z,3.60
2022-09-27T02:09:04.022Z,3.73
2022-09-27T02:11:30.555Z,4.20
2022-09-27T02:14:00.090Z,3.87
2022-09-27T02:16:36.078Z,3.80
2022-09-27T02:19:11.170Z,3.80
2022-09-27T02:21:42.844Z,4.00
2022-09-27T02:24:13.088Z,4.13
2022-09-27T02:26:44.225Z,3.20
2022-09-27T02:29:17.027Z,4.00
2022-09-27T02:31:43.549Z,3.30
2022-09-27T02:34:18.452Z,3.50
2022-09-27T02:36:44.811Z,3.30
2022-09-27T02:39:11.429Z,3.93
2022-09-27T02:41:38.051Z,3.57
2022-09-27T02:44:07.458Z,3.30
2022-09-27T02:46:45.639Z,3.30
2022-09-27T02:49:21.103Z,3.60
2022-09-27T02:51:56.254Z,3.50
2022-09-27T02:54:30.230Z,3.40
2022-09-27T02:57:10.587Z,3.67
2022-09-27T02:59:48.903Z,3.40
2022-09-27T03:02:15.411Z,3.20
2022-09-27T03:04:41.898Z,4.03
2022-09-27T03:07:08.297Z,4.37
2022-09-27T03:09:45.763Z,3.83
2022-09-27T03:12:12.297Z,3.43
2022-09-27T03:14:38.692Z,3.90
2022-09-27T03:17:05.136Z,3.50
2022-09-27T03:19:31.568Z,3.30
2022-09-27T03:21:57.934Z,3.87
2022-09-27T03:24:24.362Z,3.80
2022-09-27T03:26:50.716Z,3.77
2022-09-27T03:29:17.194Z,4.30
2022-09-27T03:31:43.589Z,3.63
2022-09-27T03:34:09.963Z,4.50
2022-09-27T03:36:36.297Z,14.70
2022-09-27T03:39:02.656Z,14.70
2022-09-27T03:41:29.545Z,6.20
2022-09-27T03:43:59.909Z,4.60
2022-09-27T03:46:26.455Z,4.33
2022-09-27T03:48:53.055Z,4.17
2022-09-27T03:51:19.736Z,4.40
2022-09-27T03:53:46.102Z,4.17
2022-09-27T03:56:12.608Z,4.37
2022-09-27T03:58:39.146Z,4.37
2022-09-27T04:01:05.703Z,9.87
2022-09-27T04:03:32.149Z,6.87
2022-09-27T04:06:00.441Z,7.67
2022-09-27T04:08:26.833Z,5.90
2022-09-27T04:10:53.228Z,5.50
2022-09-27T04:13:19.614Z,5.37
2022-09-27T04:15:49.905Z,6.33
2022-09-27T04:18:18.562Z,6.00
2022-09-27T04:20:44.956Z,6.23
2022-09-27T04:23:11.361Z,6.33
2022-09-27T04:25:39.534Z,6.80
2022-09-27T04:28:06.228Z,6.37
2022-09-27T04:30:32.655Z,6.03
2022-09-27T04:32:59.072Z,6.47
2022-09-27T04:35:44.335Z,5.63
2022-09-27T04:38:10.773Z,6.07
2022-09-27T04:40:37.242Z,7.33
2022-09-27T04:43:04.882Z,6.43
2022-09-27T04:45:31.546Z,5.90
2022-09-27T04:47:58.046Z,5.50
2022-09-27T04:50:24.390Z,5.83
2022-09-27T04:52:52.093Z,5.77
2022-09-27T04:55:19.070Z,5.70
2022-09-27T04:57:45.499Z,6.07
2022-09-27T05:00:12.078Z,6.40
2022-09-27T05:02:38.476Z,5.93
2022-09-27T05:05:06.752Z,7.00
2022-09-27T05:07:34.073Z,7.30
2022-09-27T05:10:00.453Z,6.47
2022-09-27T05:12:26.934Z,6.10
2022-09-27T05:14:53.952Z,6.23
2022-09-27T05:17:21.830Z,6.40
2022-09-27T05:19:48.545Z,5.80
2022-09-27T05:22:15.023Z,5.93
2022-09-27T05:24:41.402Z,6.70
2022-09-27T05:27:08.501Z,5.67
2022-09-27T05:29:38.170Z,7.17
2022-09-27T05:32:04.732Z,7.80
2022-09-27T05:34:32.678Z,6.90
2022-09-27T05:36:59.220Z,6.57
2022-09-27T05:39:25.628Z,6.83
2022-09-27T05:41:52.169Z,7.20
2022-09-27T05:44:18.575Z,8.17
2022-09-27T05:46:46.363Z,8.77
2022-09-27T05:49:12.727Z,9.10
2022-09-27T05:51:39.139Z,8.83
2022-09-27T05:54:05.543Z,8.70
2022-09-27T05:56:31.950Z,9.13
2022-09-27T05:58:58.870Z,10.03
2022-09-27T06:01:26.839Z,10.77
2022-09-27T06:03:53.629Z,10.80
2022-09-27T06:06:20.081Z,11.30
2022-09-27T06:08:46.645Z,10.93
2022-09-27T06:11:13.098Z,12.13
2022-09-27T06:13:40.059Z,12.03
2022-09-27T06:16:07.203Z,12.97
2022-09-27T06:18:34.003Z,13.67
2022-09-27T06:21:00.998Z,13.33
2022-09-27T06:23:27.467Z,14.03
2022-09-27T06:25:54.686Z,13.77
2022-09-27T06:28:22.030Z,12.47
2022-09-27T06:30:49.264Z,10.93
2022-09-27T06:33:16.733Z,11.27
2022-09-27T06:35:45.281Z,11.67
2022-09-27T06:38:12.962Z,10.67
2022-09-27T06:40:39.652Z,11.13
2022-09-27T06:43:08.155Z,10.33
2022-09-27T06:45:35.660Z,9.07
2022-09-27T06:48:02.565Z,9.03
2022-09-27T06:50:29.938Z,9.10
2022-09-27T06:52:56.533Z,8.67
2022-09-27T06:55:22.995Z,7.17
2022-09-27T06:58:08.114Z,6.47
2022-09-27T07:00:34.499Z,6.57
2022-09-27T07:03:03.603Z,6.63
2022-09-27T07:05:30.791Z,6.83
2022-09-27T07:07:57.791Z,5.27
2022-09-27T07:10:25.607Z,4.60
2022-09-27T07:12:52.833Z,4.77
2022-09-27T07:15:21.473Z,3.57
2022-09-27T07:17:48.566Z,3.97
2022-09-27T07:20:15.381Z,4.50
2022-09-27T07:22:45.254Z,3.63
2022-09-27T07:25:12.045Z,3.10
2022-09-27T07:27:41.682Z,3.83
2022-09-27T07:30:09.033Z,2.70
2022-09-27T07:32:36.881Z,1.83
2022-09-27T07:35:03.923Z,1.90
2022-09-27T07:37:32.510Z,1.67
2022-09-27T07:39:59.252Z,1.90
2022-09-27T07:42:25.654Z,1.50
2022-09-27T07:44:52.226Z,1.17
2022-09-27T07:47:19.607Z,1.43
2022-09-27T07:49:45.977Z,1.30
2022-09-27T07:52:13.045Z,1.20
2022-09-27T07:54:39.421Z,1.40
2022-09-27T07:57:05.891Z,1.30
2022-09-27T07:59:32.290Z,2.47
2022-09-27T08:01:58.707Z,1.40
2022-09-27T08:04:25.148Z,1.33
2022-09-27T08:06:51.520Z,1.60
2022-09-27T08:09:17.933Z,1.70
2022-09-27T08:11:46.071Z,1.63
2022-09-27T08:14:14.853Z,2.17
2022-09-27T08:16:41.723Z,1.77
2022-09-27T08:19:08.114Z,2.03
2022-09-27T08:21:35.051Z,2.00
2022-09-27T08:24:01.522Z,1.90
2022-09-27T08:26:28.533Z,1.80
2022-09-27T08:28:54.926Z,2.13
2022-09-27T08:31:21.400Z,1.73
2022-09-27T08:33:51.542Z,1.57
2022-09-27T08:36:18.001Z,1.53
2022-09-27T08:38:44.466Z,1.63
2022-09-27T08:41:23.118Z,1.50
2022-09-27T08:43:57.592Z,1.40
2022-09-27T08:46:42.832Z,1.37
2022-09-27T08:49:14.169Z,1.67
2022-09-27T08:51:42.031Z,1.40
2022-09-27T08:54:14.502Z,1.60
2022-09-27T08:56:41.390Z,1.40
2022-09-27T08:59:16.381Z,1.60
2022-09-27T09:01:43.231Z,1.50
2022-09-27T09:04:10.564Z,1.53
2022-09-27T09:06:42.927Z,1.80
2022-09-27T09:09:12.328Z,1.77
2022-09-27T09:12:16.486Z,1.80
2022-09-27T09:14:51.785Z,1.80
2022-09-27T09:17:36.931Z,2.37
2022-09-27T09:20:22.278Z,1.87
2022-09-27T09:22:56.423Z,1.87
2022-09-27T09:25:22.873Z,2.30
2022-09-27T09:28:03.154Z,1.90
2022-09-27T09:30:52.617Z,1.90
2022-09-27T09:33:18.944Z,1.97
2022-09-27T09:35:48.814Z,1.80
2022-09-27T09:38:27.078Z,1.90
2022-09-27T09:40:53.446Z,1.63
2022-09-27T09:43:29.064Z,1.67
2022-09-27T09:46:00.165Z,1.73
2022-09-27T09:48:37.047Z,1.97
2022-09-27T09:51:07.726Z,1.57
2022-09-27T09:53:43.839Z,1.90
2022-09-27T09:56:15.619Z,1.53
2022-09-27T09:58:49.299Z,1.50
2022-09-27T10:01:18.704Z,1.60
2022-09-27T10:03:45.551Z,1.73
2022-09-27T10:06:12.946Z,1.40
2022-09-27T10:08:39.406Z,1.30
2022-09-27T10:11:06.396Z,1.30
2022-09-27T10:13:34.815Z,1.60
2022-09-27T10:16:04.375Z,1.30
2022-09-27T10:18:31.479Z,1.60
2022-09-27T10:21:00.116Z,2.03
2022-09-27T10:23:26.633Z,1.20
2022-09-27T10:25:57.478Z,1.30
2022-09-27T10:28:33.085Z,1.63
2022-09-27T10:31:00.684Z,1.47
2022-09-27T10:33:27.762Z,1.40
2022-09-27T10:35:54.130Z,1.33
2022-09-27T10:38:29.798Z,1.20
2022-09-27T10:40:58.861Z,1.13
2022-09-27T10:43:32.719Z,1.27
2022-09-27T10:46:09.312Z,1.47
2022-09-27T10:48:36.369Z,1.23
2022-09-27T10:51:04.567Z,1.23
2022-09-27T10:53:31.659Z,1.10
2022-09-27T10:55:58.296Z,2.50
2022-09-27T10:58:32.688Z,6.07
2022-09-27T11:01:12.326Z,1.10
2022-09-27T11:03:46.442Z,1.10
2022-09-27T11:06:40.690Z,1.07
2022-09-27T11:09:24.195Z,1.30
2022-09-27T11:11:50.961Z,1.30
2022-09-27T11:14:17.871Z,1.60
2022-09-27T11:17:02.047Z,1.03
2022-09-27T11:19:34.994Z,1.00
2022-09-27T11:22:13.287Z,1.00
2022-09-27T11:24:47.685Z,1.00
2022-09-27T11:27:33.006Z,13.07
2022-09-27T11:30:09.922Z,9.03
2022-09-27T11:32:54.706Z,1.17
2022-09-27T11:35:21.490Z,0.90
2022-09-27T11:37:55.936Z,1.10
2022-09-27T11:40:25.495Z,1.00
2022-09-27T11:43:04.193Z,0.73
2022-09-27T11:46:14.981Z,0.93
2022-09-27T11:48:35.795Z,1.17
2022-09-27T11:51:02.563Z,1.20
2022-09-27T11:53:47.553Z,0.70
2022-09-27T11:56:32.811Z,1.03
2022-09-27T11:58:59.112Z,1.13
2022-09-27T12:01:44.376Z,1.10
2022-09-27T12:04:29.571Z,0.73
2022-09-27T12:07:03.102Z,0.80
2022-09-27T12:09:35.651Z,1.03
2022-09-27T12:12:11.510Z,0.73
2022-09-27T12:14:44.556Z,0.70
2022-09-27T12:17:12.813Z,0.93
2022-09-27T12:19:43.246Z,0.77
2022-09-27T12:22:14.164Z,0.80
2022-09-27T12:24:40.881Z,0.67
2022-09-27T12:27:09.865Z,1.10
2022-09-27T12:29:41.255Z,1.17
2022-09-27T12:32:26.296Z,0.90
2022-09-27T12:34:52.666Z,0.80
2022-09-27T12:37:25.338Z,0.47
2022-09-27T12:39:51.782Z,0.50
2022-09-27T12:42:21.302Z,0.50
2022-09-27T12:44:51.004Z,0.60
2022-09-27T12:47:21.027Z,0.50
2022-09-27T12:50:01.048Z,0.60
2022-09-27T12:52:30.934Z,0.50
2022-09-27T12:55:17.376Z,0.60
2022-09-27T12:58:02.343Z,0.77
2022-09-27T13:00:56.131Z,0.63
2022-09-27T13:03:43.456Z,0.70
2022-09-27T13:06:13.378Z,0.80
2022-09-27T13:08:54.030Z,0.97
2022-09-27T13:11:21.998Z,0.33
2022-09-27T13:13:48.390Z,0.67
2022-09-27T13:16:14.964Z,0.60
2022-09-27T13:19:01.373Z,1.47
2022-09-27T13:21:46.349Z,2.47
2022-09-27T13:24:30.999Z,0.63
2022-09-27T13:27:01.050Z,0.63
2022-09-27T13:29:29.039Z,0.60
2022-09-27T13:31:55.355Z,0.70
2022-09-27T13:34:40.813Z,0.53
2022-09-27T13:37:22.387Z,0.90
2022-09-27T13:39:48.802Z,0.97
2022-09-27T13:42:20.292Z,0.87
2022-09-27T13:44:49.657Z,1.00
2022-09-27T13:47:38.179Z,2.70
2022-09-27T13:50:16.660Z,0.80
2022-09-27T13:52:44.949Z,1.43
2022-09-27T13:55:34.628Z,0.60
2022-09-27T13:58:11.318Z,0.67
2022-09-27T14:00:43.012Z,0.90
2022-09-27T14:03:12.463Z,0.90
2022-09-27T14:05:41.509Z,0.77
2022-09-27T14:08:14.199Z,0.70
2022-09-27T14:10:43.371Z,0.70
2022-09-27T14:13:11.135Z,0.77
2022-09-27T14:15:37.980Z,1.17
2022-09-27T14:18:04.432Z,1.60
2022-09-27T14:20:42.010Z,1.00
2022-09-27T14:23:27.078Z,1.10
2022-09-27T14:25:54.088Z,0.73
2022-09-27T14:28:23.864Z,0.70
2022-09-27T14:31:04.921Z,1.00
2022-09-27T14:33:32.301Z,0.67
2022-09-27T14:36:21.697Z,0.87
2022-09-27T14:38:50.118Z,0.90
2022-09-27T14:41:16.499Z,0.77
2022-09-27T14:43:44.592Z,0.90
2022-09-27T14:46:24.420Z,1.00
2022-09-27T14:48:51.030Z,1.27
2022-09-27T14:51:20.630Z,1.37
2022-09-27T14:53:57.132Z,1.30
2022-09-27T14:56:32.423Z,1.40
2022-09-27T14:59:02.612Z,1.23
2022-09-27T15:01:29.942Z,1.20
2022-09-27T15:03:57.485Z,1.30
2022-09-27T15:06:24.945Z,1.50
2022-09-27T15:08:51.437Z,1.57
2022-09-27T15:11:19.337Z,1.50
2022-09-27T15:13:46.548Z,1.70
2022-09-27T15:16:20.051Z,1.23
2022-09-27T15:18:47.653Z,1.50
2022-09-27T15:21:34.404Z,1.40
2022-09-27T15:24:02.736Z,1.20
2022-09-27T15:26:37.628Z,1.20
2022-09-27T15:29:04.474Z,1.30
2022-09-27T15:31:37.300Z,2.13
2022-09-27T15:34:07.220Z,1.10
2022-09-27T15:36:51.299Z,1.20
2022-09-27T15:39:19.084Z,1.10
2022-09-27T15:42:00.890Z,1.23
2022-09-27T15:44:38.187Z,1.47
2022-09-27T15:47:04.924Z,1.40
2022-09-27T15:49:33.503Z,1.60
2022-09-27T15:52:00.919Z,1.30
2022-09-27T15:54:30.260Z,1.33
2022-09-27T15:56:59.464Z,1.20
2022-09-27T15:59:30.018Z,1.30
2022-09-27T16:01:57.631Z,1.30
2022-09-27T16:04:24.714Z,1.47
2022-09-27T16:06:51.061Z,1.00
2022-09-27T16:09:21.144Z,1.47
2022-09-27T16:11:48.289Z,1.30
2022-09-27T16:14:18.347Z,0.93
2022-09-27T16:16:46.651Z,0.90
2022-09-27T16:19:13.339Z,0.90
2022-09-27T16:21:39.700Z,1.10
2022-09-27T16:24:06.432Z,0.83
2022-09-27T16:26:34.050Z,1.37
2022-09-27T16:29:00.375Z,1.03
2022-09-27T16:31:26.815Z,1.57
2022-09-27T16:33:53.227Z,1.00
2022-09-27T16:36:20.679Z,0.73
2022-09-27T16:38:52.267Z,1.30
2022-09-27T16:41:20.029Z,1.10
2022-09-27T16:43:46.861Z,23.27
2022-09-27T16:46:16.065Z,8.63
2022-09-27T16:48:42.911Z,1.67
2022-09-27T16:51:38.635Z,1.30
2022-09-27T16:54:08.202Z,1.13
2022-09-27T16:56:35.279Z,1.00
2022-09-27T16:59:04.167Z,1.10
2022-09-27T17:01:30.971Z,1.10
2022-09-27T17:03:57.775Z,1.20
2022-09-27T17:06:24.533Z,1.10
2022-09-27T17:08:50.909Z,1.17
2022-09-27T17:11:18.444Z,2.00
2022-09-27T17:13:45.279Z,1.47
2022-09-27T17:16:13.435Z,1.87
2022-09-27T17:18:39.909Z,1.33
2022-09-27T17:21:06.873Z,1.40
2022-09-27T17:23:33.955Z,1.10
2022-09-27T17:26:14.931Z,1.33
2022-09-27T17:28:42.719Z,1.17
2022-09-27T17:31:10.757Z,0.97
2022-09-27T17:33:43.345Z,1.17
2022-09-27T17:36:12.144Z,1.00
2022-09-27T17:38:38.823Z,1.00
2022-09-27T17:41:06.322Z,1.10
2022-09-27T17:43:34.222Z,1.53
2022-09-27T17:46:07.993Z,1.40
2022-09-27T17:48:53.879Z,1.40
2022-09-27T17:51:20.959Z,2.27
2022-09-27T17:53:48.012Z,1.43
2022-09-27T17:56:14.811Z,1.13
2022-09-27T17:58:51.491Z,1.23
2022-09-27T18:01:18.677Z,1.53
2022-09-27T18:03:45.964Z,1.30
2022-09-27T18:06:12.985Z,1.30
2022-09-27T18:08:39.842Z,1.53
2022-09-27T18:11:07.473Z,2.23
2022-09-27T18:13:43.331Z,2.00
2022-09-27T18:16:11.184Z,1.50
2022-09-27T18:18:41.062Z,1.37
2022-09-27T18:21:09.843Z,1.20
2022-09-27T18:23:36.190Z,1.20
2022-09-27T18:26:03.423Z,1.10
2022-09-27T18:28:30.067Z,1.30
2022-09-27T18:31:00.962Z,1.50
2022-09-27T18:33:27.442Z,1.20
2022-09-27T18:35:53.822Z,1.40
2022-09-27T18:38:20.259Z,1.70
2022-09-27T18:40:56.280Z,2.00
2022-09-27T18:43:24.764Z,1.80
2022-09-27T18:45:51.226Z,2.20
2022-09-27T18:48:17.684Z,1.60
2022-09-27T18:50:45.156Z,2.47
2022-09-27T18:53:11.613Z,1.93
2022-09-27T18:55:38.754Z,2.13
2022-09-27T18:58:05.213Z,1.80
2022-09-27T19:00:31.589Z,2.13
2022-09-27T19:02:57.963Z,2.20
2022-09-27T19:05:24.298Z,2.30
2022-09-27T19:07:50.760Z,2.20
2022-09-27T19:10:17.141Z,1.90
2022-09-27T19:12:43.561Z,2.00
2022-09-27T19:15:10.562Z,2.07
2022-09-27T19:17:36.951Z,1.70
2022-09-27T19:20:06.418Z,2.47
2022-09-27T19:22:33.209Z,2.57
2022-09-27T19:24:59.581Z,2.30
2022-09-27T19:27:25.925Z,2.03
2022-09-27T19:29:52.857Z,2.23
2022-09-27T19:32:19.198Z,2.27
2022-09-27T19:34:45.505Z,2.13
2022-09-27T19:37:11.894Z,2.23
2022-09-27T19:39:38.240Z,2.40
2022-09-27T19:42:04.677Z,2.10
2022-09-27T19:44:31.060Z,2.77
2022-09-27T19:46:57.450Z,3.00
2022-09-27T19:49:25.294Z,3.37
2022-09-27T19:51:52.126Z,2.67
2022-09-27T19:54:18.499Z,2.57
2022-09-27T19:56:44.845Z,2.33
2022-09-27T19:59:11.386Z,3.00
2022-09-27T20:01:37.871Z,5.63
2022-09-27T20:04:04.269Z,3.03
2022-09-27T20:06:32.463Z,3.00
2022-09-27T20:08:58.809Z,3.03
2022-09-27T20:11:26.940Z,3.10
2022-09-27T20:13:53.523Z,3.73
2022-09-27T20:16:20.958Z,3.60
2022-09-27T20:18:48.561Z,3.53
2022-09-27T20:21:15.926Z,4.03
2022-09-27T20:23:42.473Z,3.33
2022-09-27T20:26:10.653Z,2.97
2022-09-27T20:28:40.951Z,3.30
2022-09-27T20:31:07.763Z,3.30
2022-09-27T20:33:52.340Z,2.63
2022-09-27T20:36:20.396Z,2.83
2022-09-27T20:38:47.882Z,2.90
2022-09-27T20:41:16.455Z,3.00
2022-09-27T20:43:42.851Z,3.57
2022-09-27T20:46:13.802Z,3.63
2022-09-27T20:48:40.296Z,3.70
2022-09-27T20:51:07.343Z,4.13
2022-09-27T20:53:34.133Z,3.80
2022-09-27T20:56:02.828Z,4.40
2022-09-27T20:58:29.763Z,4.43
2022-09-27T21:00:56.238Z,4.07
2022-09-27T21:03:22.691Z,4.83
2022-09-27T21:05:55.829Z,4.30
2022-09-27T21:08:22.791Z,4.07
2022-09-27T21:10:52.706Z,3.90
2022-09-27T21:13:19.530Z,3.83
2022-09-27T21:15:46.102Z,4.50
2022-09-27T21:18:12.857Z,4.07
2022-09-27T21:20:39.209Z,4.23
2022-09-27T21:23:05.769Z,4.43
2022-09-27T21:25:32.152Z,5.07
2022-09-27T21:27:58.581Z,4.70
2022-09-27T21:30:25.326Z,4.10
2022-09-27T21:32:55.105Z,4.30
2022-09-27T21:35:22.047Z,4.47
2022-09-27T21:37:48.563Z,4.57
2022-09-27T21:40:15.367Z,4.70
2022-09-27T21:42:41.870Z,4.73
2022-09-27T21:45:08.610Z,4.33
2022-09-27T21:47:34.943Z,4.40
2022-09-27T21:50:01.296Z,4.40
2022-09-27T21:52:27.957Z,4.57
2022-09-27T21:54:54.278Z,4.50
2022-09-27T21:57:20.625Z,4.27
2022-09-27T21:59:47.016Z,3.90
2022-09-27T22:02:13.599Z,4.53
2022-09-27T22:04:39.969Z,4.13
2022-09-27T22:07:06.311Z,3.83
2022-09-27T22:09:32.660Z,4.07
2022-09-27T22:11:59.050Z,4.37
2022-09-27T22:14:25.472Z,4.77
2022-09-27T22:16:51.977Z,4.40
2022-09-27T22:19:19.086Z,4.30
2022-09-27T22:21:45.661Z,4.53
2022-09-27T22:24:14.019Z,4.47
2022-09-27T22:26:41.225Z,4.60
2022-09-27T22:29:08.082Z,4.37
2022-09-27T22:31:34.789Z,4.13
2022-09-27T22:34:02.448Z,4.10
2022-09-27T22:36:29.563Z,4.20
2022-09-27T22:38:55.958Z,3.67
2022-09-27T22:41:22.719Z,4.67
2022-09-27T22:43:49.132Z,4.10
2022-09-27T22:46:15.565Z,3.67
2022-09-27T22:48:42.398Z,3.60
2022-09-27T22:51:08.897Z,3.73
2022-09-27T22:53:35.730Z,3.47
2022-09-27T22:56:07.090Z,3.37
2022-09-27T22:58:34.276Z,3.50
2022-09-27T23:01:06.973Z,3.50
2022-09-27T23:03:33.506Z,3.53
2022-09-27T23:06:03.775Z,3.80
2022-09-27T23:08:32.402Z,3.80
2022-09-27T23:11:03.074Z,3.50
2022-09-27T23:13:33.375Z,3.27
2022-09-27T23:16:00.535Z,3.80
2022-09-27T23:18:26.951Z,3.70
2022-09-27T23:20:53.306Z,3.93
2022-09-27T23:23:19.650Z,3.70
2022-09-27T23:25:45.991Z,3.80
2022-09-27T23:28:13.013Z,4.27
2022-09-27T23:30:39.365Z,4.07
2022-09-27T23:33:05.748Z,5.07
2022-09-27T23:35:33.845Z,5.03
2022-09-27T23:38:01.383Z,4.93
2022-09-27T23:40:27.799Z,4.90
2022-09-27T23:42:54.320Z,5.37
2022-09-27T23:45:20.678Z,4.90
2022-09-27T23:47:47.040Z,5.20
2022-09-27T23:50:13.424Z,5.10
2022-09-27T23:52:39.842Z,5.20
2022-09-27T23:55:06.561Z,5.37
2022-09-27T23:57:32.880Z,4.70
2022-09-27T23:59:59.226Z,4.80
